createdAt,value
2023-02-11T00:01:20.204Z,7.10
2023-02-11T00:03:47.166Z,7.10
2023-02-11T00:06:14.709Z,7.10
2023-02-11T00:08:41.643Z,7.00
2023-02-11T00:11:12.261Z,7.00
2023-02-11T00:13:39.148Z,7.00
2023-02-11T00:16:12.121Z,6.90
2023-02-11T00:18:39.416Z,6.90
2023-02-11T00:21:11.540Z,6.90
2023-02-11T00:23:39.046Z,6.90
2023-02-11T00:26:16.436Z,6.90
2023-02-11T00:28:44.797Z,6.80
2023-02-11T00:31:13.178Z,7.00
2023-02-11T00:33:40.372Z,7.00
2023-02-11T00:36:11.996Z,6.90
2023-02-11T00:38:39.015Z,6.70
2023-02-11T00:41:07.371Z,6.80
2023-02-11T00:43:35.301Z,6.80
2023-02-11T00:46:02.335Z,6.80
2023-02-11T00:48:30.670Z,6.80
2023-02-11T00:50:57.625Z,6.70
2023-02-11T00:53:27.317Z,6.70
2023-02-11T00:55:54.322Z,6.70
2023-02-11T00:58:22.572Z,6.60
2023-02-11T01:00:50.360Z,6.70
2023-02-11T01:03:17.539Z,6.70
2023-02-11T01:05:44.591Z,6.60
2023-02-11T01:08:14.884Z,6.70
2023-02-11T01:10:42.177Z,6.60
2023-02-11T01:13:09.102Z,6.90
2023-02-11T01:15:36.604Z,6.80
2023-02-11T01:18:05.750Z,7.00
2023-02-11T01:20:32.730Z,6.80
2023-02-11T01:23:00.799Z,6.80
2023-02-11T01:25:27.726Z,6.80
2023-02-11T01:27:54.815Z,6.70
2023-02-11T01:30:23.200Z,6.80
2023-02-11T01:32:50.285Z,6.70
2023-02-11T01:35:17.390Z,6.60
2023-02-11T01:37:44.291Z,6.60
2023-02-11T01:40:19.497Z,6.60
2023-02-11T01:42:49.365Z,6.50
2023-02-11T01:45:49.385Z,6.50
2023-02-11T01:48:28.631Z,6.50
2023-02-11T01:51:02.585Z,6.50
2023-02-11T01:53:49.052Z,6.60
2023-02-11T01:56:36.969Z,6.70
2023-02-11T01:59:11.718Z,6.70
2023-02-11T02:01:41.650Z,6.60
2023-02-11T02:04:10.243Z,6.60
2023-02-11T02:06:46.301Z,6.90
2023-02-11T02:09:44.121Z,6.80
2023-02-11T02:12:11.195Z,6.80
2023-02-11T02:14:40.631Z,6.90
2023-02-11T02:17:16.492Z,6.90
2023-02-11T02:20:19.405Z,7.00
2023-02-11T02:22:52.616Z,7.00
2023-02-11T02:25:56.859Z,7.10
2023-02-11T02:29:01.677Z,7.00
2023-02-11T02:31:58.259Z,7.10
2023-02-11T02:34:58.853Z,7.10
2023-02-11T02:37:41.015Z,7.10
2023-02-11T02:40:22.720Z,7.10
2023-02-11T02:42:51.016Z,7.10
2023-02-11T02:45:18.778Z,7.00
2023-02-11T02:47:45.729Z,7.00
2023-02-11T02:50:16.665Z,7.00
2023-02-11T02:52:56.896Z,7.20
2023-02-11T02:55:42.680Z,7.00
2023-02-11T02:58:18.741Z,7.00
2023-02-11T03:01:05.101Z,7.00
2023-02-11T03:04:01.647Z,7.10
2023-02-11T03:06:38.841Z,7.10
2023-02-11T03:09:32.258Z,7.10
2023-02-11T03:12:00.698Z,7.10
2023-02-11T03:14:30.189Z,7.10
2023-02-11T03:17:00.854Z,7.10
2023-02-11T03:19:38.729Z,7.30
2023-02-11T03:22:10.690Z,7.20
2023-02-11T03:24:39.855Z,7.20
2023-02-11T03:27:27.745Z,7.20
2023-02-11T03:30:22.259Z,7.20
2023-02-11T03:32:56.015Z,7.20
2023-02-11T03:35:46.588Z,7.20
2023-02-11T03:38:31.741Z,7.10
2023-02-11T03:41:00.616Z,7.20
2023-02-11T03:43:58.015Z,7.20
2023-02-11T03:46:33.636Z,7.30
2023-02-11T03:49:09.841Z,7.30
2023-02-11T03:51:37.465Z,7.30
2023-02-11T03:54:10.703Z,7.30
2023-02-11T03:56:46.408Z,7.40
2023-02-11T03:59:14.399Z,7.20
2023-02-11T04:01:41.385Z,7.40
2023-02-11T04:04:10.517Z,7.30
2023-02-11T04:06:37.662Z,7.40
2023-02-11T04:09:04.890Z,7.40
2023-02-11T04:11:31.868Z,7.60
2023-02-11T04:14:00.399Z,7.40
2023-02-11T04:16:27.397Z,7.40
2023-02-11T04:18:54.497Z,7.30
2023-02-11T04:21:21.639Z,7.30
2023-02-11T04:23:48.804Z,7.30
2023-02-11T04:26:15.743Z,7.30
2023-02-11T04:28:42.686Z,7.30
2023-02-11T04:31:12.283Z,7.40
2023-02-11T04:33:39.951Z,7.30
2023-02-11T04:36:07.422Z,7.30
2023-02-11T04:38:34.340Z,7.20
2023-02-11T04:41:01.407Z,7.40
2023-02-11T04:43:28.513Z,7.20
2023-02-11T04:45:58.977Z,7.30
2023-02-11T04:48:26.879Z,7.20
2023-02-11T04:50:53.912Z,7.20
2023-02-11T04:53:21.415Z,7.20
2023-02-11T04:55:59.404Z,7.20
2023-02-11T04:58:26.409Z,7.30
2023-02-11T05:00:53.521Z,7.10
2023-02-11T05:03:20.444Z,7.20
2023-02-11T05:05:50.700Z,7.20
2023-02-11T05:08:18.116Z,7.20
2023-02-11T05:10:47.270Z,7.20
2023-02-11T05:13:14.376Z,7.20
2023-02-11T05:15:41.413Z,7.20
2023-02-11T05:18:08.470Z,7.20
2023-02-11T05:20:37.784Z,7.20
2023-02-11T05:23:04.834Z,7.30
2023-02-11T05:25:31.832Z,7.30
2023-02-11T05:27:58.789Z,7.30
2023-02-11T05:30:26.096Z,7.40
2023-02-11T05:32:53.194Z,7.30
2023-02-11T05:35:20.400Z,7.30
2023-02-11T05:37:47.389Z,7.30
2023-02-11T05:40:14.612Z,7.30
2023-02-11T05:42:45.281Z,7.40
2023-02-11T05:45:12.450Z,7.30
2023-02-11T05:47:39.372Z,7.30
2023-02-11T05:50:06.761Z,7.30
2023-02-11T05:52:33.714Z,7.20
2023-02-11T05:55:00.901Z,7.20
2023-02-11T05:57:27.987Z,7.20
2023-02-11T05:59:54.921Z,7.20
2023-02-11T06:02:21.950Z,7.20
2023-02-11T06:04:48.953Z,7.20
2023-02-11T06:07:17.541Z,7.20
2023-02-11T06:09:44.466Z,7.50
2023-02-11T06:12:11.366Z,7.40
2023-02-11T06:14:38.392Z,7.50
2023-02-11T06:17:05.460Z,7.40
2023-02-11T06:19:34.158Z,7.30
2023-02-11T06:22:02.271Z,7.30
2023-02-11T06:24:54.720Z,7.30
2023-02-11T06:27:16.335Z,7.30
2023-02-11T06:29:43.349Z,7.40
2023-02-11T06:32:33.574Z,7.30
2023-02-11T06:34:59.426Z,7.30
2023-02-11T06:37:26.481Z,7.30
2023-02-11T06:39:53.492Z,7.30
2023-02-11T06:42:20.657Z,7.30
2023-02-11T06:44:47.629Z,7.30
2023-02-11T06:47:14.564Z,7.40
2023-02-11T06:49:41.466Z,7.40
2023-02-11T06:52:08.486Z,7.40
2023-02-11T06:54:35.670Z,7.40
2023-02-11T06:57:03.439Z,7.40
2023-02-11T06:59:30.695Z,7.50
2023-02-11T07:01:57.632Z,7.40
2023-02-11T07:04:28.415Z,7.40
2023-02-11T07:06:55.381Z,7.50
2023-02-11T07:09:22.443Z,7.50
2023-02-11T07:11:50.795Z,7.30
2023-02-11T07:14:17.755Z,7.30
2023-02-11T07:16:44.659Z,7.30
2023-02-11T07:19:11.720Z,7.30
2023-02-11T07:21:38.910Z,7.30
2023-02-11T07:24:11.160Z,7.30
2023-02-11T07:26:38.828Z,7.40
2023-02-11T07:29:05.779Z,7.30
2023-02-11T07:31:33.321Z,7.40
2023-02-11T07:34:03.451Z,7.40
2023-02-11T07:36:32.235Z,7.60
2023-02-11T07:39:00.393Z,7.50
2023-02-11T07:41:27.886Z,7.40
2023-02-11T07:43:54.945Z,7.50
2023-02-11T07:46:28.712Z,7.50
2023-02-11T07:48:56.259Z,7.50
2023-02-11T07:51:26.168Z,7.50
2023-02-11T07:53:53.803Z,7.40
2023-02-11T07:56:22.560Z,7.50
2023-02-11T07:58:50.734Z,7.70
2023-02-11T08:01:24.989Z,7.50
2023-02-11T08:03:53.013Z,7.50
2023-02-11T08:06:22.492Z,7.50
2023-02-11T08:08:50.690Z,7.50
2023-02-11T08:11:21.457Z,7.50
2023-02-11T08:13:49.021Z,7.50
2023-02-11T08:16:22.380Z,7.50
2023-02-11T08:18:50.828Z,7.70
2023-02-11T08:21:18.354Z,7.60
2023-02-11T08:23:46.426Z,7.60
2023-02-11T08:26:23.444Z,7.50
2023-02-11T08:28:52.328Z,7.60
2023-02-11T08:31:23.066Z,7.70
2023-02-11T08:33:50.727Z,7.50
2023-02-11T08:36:20.254Z,7.60
2023-02-11T08:38:47.555Z,7.60
2023-02-11T08:41:15.064Z,7.70
2023-02-11T08:43:43.856Z,7.80
2023-02-11T08:46:17.855Z,7.90
2023-02-11T08:48:49.480Z,8.00
2023-02-11T08:51:20.632Z,8.00
2023-02-11T08:53:49.075Z,8.00
2023-02-11T08:56:17.484Z,8.00
2023-02-11T08:58:48.326Z,8.00
2023-02-11T09:01:19.325Z,8.10
2023-02-11T09:03:47.914Z,8.10
2023-02-11T09:06:15.666Z,8.20
2023-02-11T09:08:46.429Z,8.10
2023-02-11T09:11:14.828Z,8.10
2023-02-11T09:13:43.608Z,8.10
2023-02-11T09:16:18.980Z,8.20
2023-02-11T09:18:46.511Z,8.00
2023-02-11T09:21:14.961Z,7.90
2023-02-11T09:23:44.031Z,8.00
2023-02-11T09:26:16.527Z,8.10
2023-02-11T09:28:43.959Z,8.20
2023-02-11T09:31:18.037Z,8.10
2023-02-11T09:33:49.667Z,8.20
2023-02-11T09:36:40.223Z,8.20
2023-02-11T09:39:14.414Z,8.30
2023-02-11T09:41:56.367Z,8.30
2023-02-11T09:44:31.680Z,8.20
2023-02-11T09:47:01.599Z,8.20
2023-02-11T09:49:53.834Z,8.30
2023-02-11T09:52:42.620Z,8.30
2023-02-11T09:55:23.667Z,8.30
2023-02-11T09:57:50.738Z,8.30
2023-02-11T10:00:23.457Z,8.30
2023-02-11T10:03:22.868Z,8.30
2023-02-11T10:06:08.640Z,8.30
2023-02-11T10:08:57.446Z,8.30
2023-02-11T10:11:40.624Z,8.30
2023-02-11T10:14:07.524Z,8.30
2023-02-11T10:17:06.714Z,8.30
2023-02-11T10:19:57.091Z,8.30
2023-02-11T10:22:46.180Z,8.30
2023-02-11T10:25:23.786Z,8.40
2023-02-11T10:27:52.553Z,8.30
2023-02-11T10:30:37.340Z,8.30
2023-02-11T10:33:14.020Z,8.30
2023-02-11T10:35:47.515Z,8.30
2023-02-11T10:38:14.491Z,8.40
2023-02-11T10:40:42.488Z,8.50
2023-02-11T10:43:16.346Z,8.60
2023-02-11T10:45:54.499Z,8.70
2023-02-11T10:48:50.806Z,8.80
2023-02-11T10:51:22.260Z,9.00
2023-02-11T10:54:19.480Z,8.90
2023-02-11T10:56:54.661Z,8.90
2023-02-11T10:59:34.929Z,8.80
2023-02-11T11:02:21.357Z,8.90
2023-02-11T11:04:52.231Z,8.90
2023-02-11T11:07:28.415Z,9.00
2023-02-11T11:10:05.254Z,9.00
2023-02-11T11:12:36.657Z,8.90
2023-02-11T11:15:18.918Z,8.90
2023-02-11T11:17:46.306Z,8.90
2023-02-11T11:20:36.431Z,8.90
2023-02-11T11:23:17.747Z,8.80
2023-02-11T11:25:59.453Z,8.90
2023-02-11T11:28:29.871Z,8.90
2023-02-11T11:31:00.566Z,9.00
2023-02-11T11:33:35.834Z,9.10
2023-02-11T11:36:04.155Z,9.10
2023-02-11T11:38:33.678Z,9.10
2023-02-11T11:41:24.300Z,9.20
2023-02-11T11:44:13.984Z,9.10
2023-02-11T11:46:44.456Z,9.10
2023-02-11T11:49:30.625Z,9.10
2023-02-11T11:52:39.764Z,9.10
2023-02-11T11:55:34.455Z,9.10
2023-02-11T11:58:01.802Z,9.10
2023-02-11T12:00:39.959Z,9.10
2023-02-11T12:03:31.272Z,9.00
2023-02-11T12:06:07.473Z,9.20
2023-02-11T12:08:50.473Z,9.20
2023-02-11T12:11:23.099Z,9.40
2023-02-11T12:14:08.640Z,9.50
2023-02-11T12:17:06.511Z,9.60
2023-02-11T12:20:10.274Z,9.70
2023-02-11T12:22:45.922Z,9.70
2023-02-11T12:25:29.855Z,9.60
2023-02-11T12:28:24.799Z,9.60
2023-02-11T12:31:13.413Z,9.60
2023-02-11T12:33:46.199Z,9.70
2023-02-11T12:36:21.041Z,9.70
2023-02-11T12:39:12.199Z,9.70
2023-02-11T12:42:00.616Z,9.70
2023-02-11T12:44:53.335Z,9.80
2023-02-11T12:47:46.815Z,9.80
2023-02-11T12:50:39.005Z,9.70
2023-02-11T12:53:21.723Z,9.80
2023-02-11T12:55:54.170Z,9.90
2023-02-11T12:58:35.546Z,9.90
2023-02-11T13:01:19.147Z,9.90
2023-02-11T13:03:53.503Z,10.00
2023-02-11T13:06:46.647Z,9.90
2023-02-11T13:09:23.687Z,10.00
2023-02-11T13:11:55.936Z,10.00
2023-02-11T13:14:25.945Z,10.00
2023-02-11T13:16:54.340Z,10.00
2023-02-11T13:19:45.995Z,10.00
2023-02-11T13:22:39.493Z,9.90
2023-02-11T13:25:34.412Z,9.90
2023-02-11T13:28:14.645Z,10.00
2023-02-11T13:30:47.301Z,10.00
2023-02-11T13:33:21.813Z,10.10
2023-02-11T13:36:09.085Z,10.00
2023-02-11T13:38:38.226Z,10.00
2023-02-11T13:41:21.408Z,10.20
2023-02-11T13:44:19.353Z,10.20
2023-02-11T13:46:59.523Z,10.20
2023-02-11T13:49:31.663Z,10.20
2023-02-11T13:52:01.339Z,10.10
2023-02-11T13:54:39.039Z,10.00
2023-02-11T13:57:21.295Z,10.10
2023-02-11T13:59:49.843Z,10.00
2023-02-11T14:02:47.489Z,10.20
2023-02-11T14:05:44.133Z,10.20
2023-02-11T14:08:40.916Z,10.30
2023-02-11T14:11:27.885Z,10.30
2023-02-11T14:13:55.410Z,10.30
2023-02-11T14:16:37.047Z,10.40
2023-02-11T14:19:06.558Z,10.40
2023-02-11T14:21:38.988Z,10.30
2023-02-11T14:24:07.180Z,10.30
2023-02-11T14:27:11.532Z,10.30
2023-02-11T14:30:06.874Z,10.30
2023-02-11T14:32:56.535Z,10.30
2023-02-11T14:36:12.384Z,10.30
2023-02-11T14:39:16.778Z,10.40
2023-02-11T14:41:46.276Z,10.30
2023-02-11T14:44:31.930Z,10.30
2023-02-11T14:46:59.450Z,10.30
2023-02-11T14:49:33.860Z,10.20
2023-02-11T14:52:07.735Z,10.20
2023-02-11T14:54:35.589Z,10.30
2023-02-11T14:57:17.323Z,10.10
2023-02-11T15:00:05.547Z,10.10
2023-02-11T15:02:38.394Z,10.10
2023-02-11T15:05:19.515Z,10.10
2023-02-11T15:07:55.454Z,10.00
2023-02-11T15:10:43.593Z,10.00
2023-02-11T15:13:19.100Z,10.00
2023-02-11T15:15:49.567Z,10.20
2023-02-11T15:18:24.268Z,10.10
2023-02-11T15:20:52.462Z,10.10
2023-02-11T15:23:29.199Z,10.10
2023-02-11T15:25:56.798Z,10.10
2023-02-11T15:28:31.058Z,10.20
2023-02-11T15:31:20.137Z,10.20
2023-02-11T15:33:47.696Z,10.10
2023-02-11T15:36:16.137Z,10.00
2023-02-11T15:38:43.499Z,10.00
2023-02-11T15:41:35.674Z,10.00
2023-02-11T15:44:02.780Z,10.10
2023-02-11T15:46:42.555Z,10.10
2023-02-11T15:49:19.264Z,10.10
2023-02-11T15:51:47.324Z,10.10
2023-02-11T15:54:23.407Z,10.00
2023-02-11T15:56:52.849Z,10.00
2023-02-11T15:59:27.534Z,10.00
2023-02-11T16:01:55.556Z,10.10
2023-02-11T16:04:26.446Z,10.00
2023-02-11T16:06:54.832Z,10.00
2023-02-11T16:09:39.991Z,10.00
2023-02-11T16:12:24.401Z,10.00
2023-02-11T16:14:51.334Z,10.00
2023-02-11T16:17:27.970Z,10.00
2023-02-11T16:19:55.406Z,10.00
2023-02-11T16:22:35.476Z,9.90
2023-02-11T16:25:02.930Z,10.00
2023-02-11T16:27:37.636Z,9.80
2023-02-11T16:30:05.670Z,9.70
2023-02-11T16:32:34.299Z,9.80
2023-02-11T16:35:01.869Z,9.70
2023-02-11T16:37:28.808Z,9.80
2023-02-11T16:39:56.946Z,9.90
2023-02-11T16:42:24.592Z,9.90
2023-02-11T16:44:51.850Z,9.90
2023-02-11T16:47:28.016Z,9.90
2023-02-11T16:49:56.191Z,9.90
2023-02-11T16:52:23.635Z,9.90
2023-02-11T16:54:52.279Z,9.80
2023-02-11T16:57:42.220Z,9.70
2023-02-11T17:00:10.513Z,9.70
2023-02-11T17:02:38.296Z,9.70
2023-02-11T17:05:08.362Z,9.70
2023-02-11T17:07:35.517Z,9.50
2023-02-11T17:10:03.906Z,9.50
2023-02-11T17:12:30.921Z,9.50
2023-02-11T17:14:59.387Z,9.60
2023-02-11T17:17:26.430Z,9.60
2023-02-11T17:19:53.393Z,9.70
2023-02-11T17:22:21.443Z,9.70
2023-02-11T17:24:48.392Z,9.60
2023-02-11T17:27:15.501Z,9.70
2023-02-11T17:29:42.556Z,9.60
2023-02-11T17:32:09.593Z,9.60
2023-02-11T17:34:36.753Z,9.70
2023-02-11T17:37:09.084Z,9.60
2023-02-11T17:39:40.089Z,9.60
2023-02-11T17:42:08.813Z,9.60
2023-02-11T17:44:36.007Z,9.60
2023-02-11T17:47:03.080Z,9.50
2023-02-11T17:49:29.992Z,9.50
2023-02-11T17:51:57.334Z,9.60
2023-02-11T17:54:25.104Z,9.60
2023-02-11T17:56:57.825Z,9.60
2023-02-11T17:59:27.296Z,9.60
2023-02-11T18:01:57.055Z,9.50
2023-02-11T18:04:24.201Z,9.50
2023-02-11T18:06:53.789Z,9.50
2023-02-11T18:09:21.099Z,9.60
2023-02-11T18:11:50.522Z,9.70
2023-02-11T18:14:17.767Z,9.60
2023-02-11T18:16:45.221Z,9.60
2023-02-11T18:19:17.485Z,9.60
2023-02-11T18:21:44.873Z,9.60
2023-02-11T18:24:12.022Z,9.50
2023-02-11T18:26:39.058Z,9.60
2023-02-11T18:29:07.095Z,9.50
2023-02-11T18:31:35.467Z,9.50
2023-02-11T18:34:05.966Z,9.50
2023-02-11T18:36:33.311Z,9.40
2023-02-11T18:39:00.821Z,9.40
2023-02-11T18:41:28.346Z,9.40
2023-02-11T18:43:58.726Z,9.40
2023-02-11T18:46:25.834Z,9.40
2023-02-11T18:48:55.996Z,9.30
2023-02-11T18:51:23.782Z,9.40
2023-02-11T18:53:50.724Z,9.30
2023-02-11T18:56:31.974Z,9.50
2023-02-11T18:59:01.314Z,9.40
2023-02-11T19:01:30.132Z,9.60
2023-02-11T19:03:58.821Z,9.50
2023-02-11T19:06:28.374Z,9.50
2023-02-11T19:08:59.539Z,9.50
2023-02-11T19:11:47.199Z,9.40
2023-02-11T19:14:16.012Z,9.50
2023-02-11T19:16:44.601Z,9.50
2023-02-11T19:19:11.595Z,9.70
2023-02-11T19:21:40.302Z,9.60
2023-02-11T19:24:08.455Z,9.60
2023-02-11T19:26:37.068Z,9.50
2023-02-11T19:29:05.504Z,9.40
2023-02-11T19:31:34.744Z,9.60
2023-02-11T19:34:03.014Z,9.40
2023-02-11T19:36:30.113Z,9.40
2023-02-11T19:39:03.196Z,9.40
2023-02-11T19:41:31.603Z,9.40
2023-02-11T19:43:58.604Z,9.50
2023-02-11T19:46:32.610Z,9.60
2023-02-11T19:49:01.051Z,9.60
2023-02-11T19:51:28.385Z,9.50
2023-02-11T19:53:55.366Z,9.50
2023-02-11T19:56:23.310Z,9.30
2023-02-11T19:58:50.286Z,9.20
2023-02-11T20:01:21.979Z,9.20
2023-02-11T20:03:50.680Z,9.10
2023-02-11T20:06:25.855Z,9.10
2023-02-11T20:09:01.721Z,9.20
2023-02-11T20:11:31.977Z,9.20
2023-02-11T20:13:59.918Z,9.30
2023-02-11T20:16:45.076Z,9.20
2023-02-11T20:19:18.353Z,9.20
2023-02-11T20:21:47.831Z,9.20
2023-02-11T20:24:17.349Z,9.20
2023-02-11T20:26:45.803Z,9.20
2023-02-11T20:29:15.423Z,9.30
2023-02-11T20:31:42.901Z,9.30
2023-02-11T20:34:10.863Z,9.30
2023-02-11T20:36:39.450Z,9.30
2023-02-11T20:39:09.040Z,9.30
2023-02-11T20:41:40.659Z,9.20
2023-02-11T20:44:10.229Z,9.30
2023-02-11T20:46:40.197Z,9.30
2023-02-11T20:49:08.658Z,9.30
2023-02-11T20:51:37.063Z,9.50
2023-02-11T20:54:06.197Z,9.20
2023-02-11T20:56:37.236Z,9.20
2023-02-11T20:59:05.300Z,9.30
2023-02-11T21:01:40.675Z,9.20
2023-02-11T21:04:19.421Z,9.10
2023-02-11T21:06:49.391Z,9.10
2023-02-11T21:09:19.974Z,9.10
2023-02-11T21:11:48.132Z,9.30
2023-02-11T21:14:15.256Z,9.30
2023-02-11T21:16:42.342Z,9.20
2023-02-11T21:19:10.126Z,9.10
2023-02-11T21:21:38.544Z,9.20
2023-02-11T21:24:07.038Z,9.20
2023-02-11T21:26:35.449Z,9.20
2023-02-11T21:29:08.401Z,9.20
2023-02-11T21:31:36.746Z,9.20
2023-02-11T21:34:04.813Z,9.20
2023-02-11T21:36:32.279Z,9.20
2023-02-11T21:39:00.190Z,9.20
2023-02-11T21:41:27.489Z,9.20
2023-02-11T21:43:54.792Z,9.30
2023-02-11T21:46:22.401Z,9.30
2023-02-11T21:48:50.243Z,9.30
2023-02-11T21:51:20.523Z,9.30
2023-02-11T21:53:47.955Z,9.30
2023-02-11T21:56:17.302Z,9.40
2023-02-11T21:58:45.606Z,9.20
2023-02-11T22:01:18.133Z,9.20
2023-02-11T22:03:48.302Z,9.40
2023-02-11T22:06:18.112Z,9.10
2023-02-11T22:08:45.234Z,9.20
2023-02-11T22:11:13.234Z,9.20
2023-02-11T22:13:41.487Z,9.20
2023-02-11T22:16:11.723Z,9.20
2023-02-11T22:18:38.938Z,9.20
2023-02-11T22:21:12.202Z,9.10
2023-02-11T22:23:39.918Z,9.20
2023-02-11T22:26:12.685Z,9.20
2023-02-11T22:28:40.931Z,9.10
2023-02-11T22:31:17.688Z,9.30
2023-02-11T22:33:46.361Z,9.20
2023-02-11T22:36:19.578Z,9.20
2023-02-11T22:38:46.877Z,9.20
2023-02-11T22:41:14.572Z,9.20
2023-02-11T22:43:42.679Z,9.20
2023-02-11T22:46:12.646Z,9.10
2023-02-11T22:48:44.237Z,9.10
2023-02-11T22:51:15.738Z,9.10
2023-02-11T22:53:45.811Z,9.10
2023-02-11T22:56:15.735Z,9.10
2023-02-11T22:58:43.577Z,9.20
2023-02-11T23:01:12.738Z,9.20
2023-02-11T23:03:40.150Z,9.10
2023-02-11T23:06:07.863Z,9.10
2023-02-11T23:08:35.237Z,9.10
2023-02-11T23:11:13.982Z,9.10
2023-02-11T23:13:43.636Z,9.10
2023-02-11T23:16:16.418Z,9.10
2023-02-11T23:18:44.847Z,9.10
2023-02-11T23:21:16.639Z,9.10
2023-02-11T23:23:43.823Z,9.10
2023-02-11T23:26:12.772Z,9.20
2023-02-11T23:28:40.579Z,9.10
2023-02-11T23:31:39.835Z,9.10
2023-02-11T23:34:08.354Z,9.20
2023-02-11T23:36:35.918Z,9.20
2023-02-11T23:39:05.261Z,9.20
2023-02-11T23:41:32.414Z,9.10
2023-02-11T23:43:59.636Z,9.20
2023-02-11T23:46:27.336Z,9.10
2023-02-11T23:48:54.453Z,9.10
2023-02-11T23:51:22.026Z,9.20
2023-02-11T23:53:49.809Z,9.10
2023-02-11T23:56:27.514Z,9.10
2023-02-11T23:58:56.865Z,9.10
